Newark, South Dakota
Current Conditions -  °F | °C
As of 3:35 AM on Friday 28 Nov 2014 (Local Time) from KGWR Reporting Station
Overcast Overcast  
Wind Chill: -8°   Ceiling: 400
Heat Index:   Visibility: 10mi
Dew Point:   Wind: 14mph
Humidity: 79%   Direction: 110°ESE
Pressure: 29.95"   Gusts: NA
Location:  45.8144°N, 97.7089°W
Report Text: KGWR 280935Z AUTO 11012KT 10SM OVC004 M13/M16 A2995 RMK A01 P000
Loading
Personal Weather Stations






























Interactive Weather Map New forecast layout! Learn more

10-Day Weather Forecast

Advertisements
Track Severe Weather on mobile